TRA98X EHRD-LDPL
Flight info
| Callsign | TRA98X |
|---|---|
| Flight time | 1h 32m |
| Altitude | 37000 |
| Route | LUNIX Z739 MISGO DCT TIVUN DCT TESGA DCT DINKU M867 XERUM DCT BAVAX DCT RADIZ DCT URAVA DCT GIRDA |
| Aircraft | B738/M-SDE2E3FGHIRWXY/LB1 |
Departure
| Time | 2026-05-08 11:53 |
|---|---|
| Airport | Rotterdam The Hague Airport (EHRD) |
Arrival
| Time | 2026-05-08 13:25 |
|---|---|
| Airport | Pula Airport (LDPL) |
| Time | Latitude | Longitude | Altitude | Speed | Heading |
|---|---|---|---|---|---|
| 2026-05-08 11:33 | 51.95088 | 4.43431 | 0 ft | 0 kts | 327° |
| 2026-05-08 11:35 | 51.95087 | 4.43431 | 0 ft | 0 kts | 326° |
| 2026-05-08 11:49 | 51.95090 | 4.43428 | 0 ft | 2 kts | 326° |
| 2026-05-08 11:49 | 51.95128 | 4.43413 | 1 ft | 8 kts | 22° |
| 2026-05-08 11:50 | 51.95163 | 4.43479 | 0 ft | 8 kts | 35° |
| 2026-05-08 11:50 | 51.95212 | 4.43468 | 0 ft | 8 kts | 322° |
| 2026-05-08 11:50 | 51.95237 | 4.43398 | 0 ft | 8 kts | 261° |
| 2026-05-08 11:50 | 51.95216 | 4.43321 | 0 ft | 7 kts | 244° |
| 2026-05-08 11:51 | 51.95189 | 4.43252 | 1 ft | 7 kts | 230° |
| 2026-05-08 11:51 | 51.95157 | 4.43180 | 1 ft | 9 kts | 239° |
| 2026-05-08 11:51 | 51.95130 | 4.43095 | 1 ft | 8 kts | 245° |
| 2026-05-08 11:51 | 51.95109 | 4.43008 | 0 ft | 8 kts | 263° |
| 2026-05-08 11:52 | 51.95136 | 4.42927 | 1 ft | 9 kts | 320° |
| 2026-05-08 11:52 | 51.95196 | 4.42861 | 2 ft | 11 kts | 327° |
| 2026-05-08 11:52 | 51.95249 | 4.42923 | 2 ft | 11 kts | 58° |
| 2026-05-08 11:52 | 51.95370 | 4.43228 | 0 ft | 68 kts | 57° |
| 2026-05-08 11:53 | 51.95756 | 4.44193 | -1 ft | 136 kts | 57° |
| 2026-05-08 11:53 | 51.96350 | 4.45674 | 329 ft | 164 kts | 57° |
| 2026-05-08 11:53 | 51.96984 | 4.47227 | 1167 ft | 168 kts | 59° |
| 2026-05-08 11:53 | 51.97584 | 4.49073 | 1638 ft | 196 kts | 64° |
| 2026-05-08 11:54 | 51.98176 | 4.51028 | 1885 ft | 192 kts | 64° |
| 2026-05-08 11:54 | 51.98875 | 4.52979 | 2187 ft | 214 kts | 59° |
| 2026-05-08 11:54 | 51.99669 | 4.55146 | 2552 ft | 225 kts | 60° |
| 2026-05-08 11:54 | 52.00601 | 4.57216 | 2770 ft | 228 kts | 47° |
| 2026-05-08 11:55 | 52.01869 | 4.58705 | 2994 ft | 226 kts | 28° |
| 2026-05-08 11:55 | 52.03097 | 4.60274 | 3217 ft | 228 kts | 58° |
| 2026-05-08 11:55 | 52.03759 | 4.62690 | 3709 ft | 249 kts | 71° |
| 2026-05-08 11:55 | 52.04330 | 4.65434 | 4384 ft | 260 kts | 72° |
| 2026-05-08 11:56 | 52.04888 | 4.68207 | 5289 ft | 263 kts | 72° |
| 2026-05-08 11:56 | 52.05458 | 4.71054 | 6153 ft | 268 kts | 72° |
| 2026-05-08 11:56 | 52.06038 | 4.73958 | 7039 ft | 271 kts | 72° |
| 2026-05-08 11:56 | 52.06621 | 4.76890 | 7895 ft | 275 kts | 72° |
| 2026-05-08 11:57 | 52.07212 | 4.79864 | 8620 ft | 280 kts | 72° |
| 2026-05-08 11:57 | 52.07812 | 4.82865 | 8850 ft | 279 kts | 72° |
| 2026-05-08 11:57 | 52.08217 | 4.84899 | 9053 ft | 281 kts | 72° |
| 2026-05-08 11:57 | 52.08820 | 4.87913 | 9100 ft | 281 kts | 72° |
| 2026-05-08 11:58 | 52.09426 | 4.90963 | 9237 ft | 286 kts | 72° |
| 2026-05-08 11:58 | 52.09962 | 4.94091 | 9947 ft | 289 kts | 85° |
| 2026-05-08 11:58 | 52.09684 | 4.97317 | 10665 ft | 296 kts | 109° |
| 2026-05-08 11:59 | 52.08046 | 5.04062 | 11079 ft | 345 kts | 112° |
| 2026-05-08 11:59 | 52.07133 | 5.07780 | 11469 ft | 360 kts | 111° |
| 2026-05-08 11:59 | 52.06240 | 5.11566 | 12125 ft | 366 kts | 111° |
| 2026-05-08 11:59 | 52.05354 | 5.15460 | 12856 ft | 370 kts | 110° |
| 2026-05-08 12:00 | 52.04481 | 5.19404 | 13583 ft | 373 kts | 110° |
| 2026-05-08 12:00 | 52.03610 | 5.23399 | 14264 ft | 377 kts | 110° |
| 2026-05-08 12:00 | 52.02737 | 5.27443 | 14903 ft | 382 kts | 109° |
| 2026-05-08 12:00 | 52.01858 | 5.31530 | 15552 ft | 385 kts | 109° |
| 2026-05-08 12:01 | 52.00971 | 5.35653 | 16208 ft | 389 kts | 109° |
| 2026-05-08 12:01 | 52.00076 | 5.39812 | 16823 ft | 393 kts | 109° |
| 2026-05-08 12:01 | 51.99169 | 5.44018 | 17434 ft | 397 kts | 110° |
| 2026-05-08 12:01 | 51.98251 | 5.48263 | 18007 ft | 400 kts | 110° |
| 2026-05-08 12:02 | 51.97325 | 5.52535 | 18590 ft | 404 kts | 110° |
| 2026-05-08 12:02 | 51.96387 | 5.56858 | 19176 ft | 407 kts | 110° |
| 2026-05-08 12:02 | 51.95441 | 5.61204 | 19731 ft | 411 kts | 110° |
| 2026-05-08 12:02 | 51.94485 | 5.65586 | 20270 ft | 414 kts | 110° |
| 2026-05-08 12:03 | 51.93520 | 5.69997 | 20780 ft | 417 kts | 110° |
| 2026-05-08 12:03 | 51.92546 | 5.74445 | 21290 ft | 420 kts | 110° |
| 2026-05-08 12:03 | 51.91563 | 5.78922 | 21775 ft | 423 kts | 110° |
| 2026-05-08 12:03 | 51.90572 | 5.83429 | 22250 ft | 427 kts | 110° |
| 2026-05-08 12:04 | 51.89572 | 5.87970 | 22703 ft | 430 kts | 110° |
| 2026-05-08 12:04 | 51.88565 | 5.92535 | 23152 ft | 433 kts | 110° |
| 2026-05-08 12:04 | 51.87544 | 5.97146 | 23600 ft | 435 kts | 110° |
| 2026-05-08 12:04 | 51.86510 | 6.01762 | 24019 ft | 438 kts | 112° |
| 2026-05-08 12:05 | 51.85170 | 6.06195 | 24405 ft | 440 kts | 122° |
| 2026-05-08 12:05 | 51.83393 | 6.10227 | 24814 ft | 441 kts | 131° |
| 2026-05-08 12:05 | 51.81325 | 6.13903 | 25228 ft | 443 kts | 134° |
| 2026-05-08 12:05 | 51.79236 | 6.17583 | 25590 ft | 446 kts | 133° |
| 2026-05-08 12:06 | 51.77161 | 6.21315 | 25941 ft | 448 kts | 133° |
| 2026-05-08 12:06 | 51.75087 | 6.25100 | 26297 ft | 451 kts | 132° |
| 2026-05-08 12:06 | 51.73010 | 6.28901 | 26637 ft | 453 kts | 132° |
| 2026-05-08 12:06 | 51.70921 | 6.32721 | 26972 ft | 455 kts | 132° |
| 2026-05-08 12:07 | 51.68823 | 6.36549 | 27296 ft | 457 kts | 132° |
| 2026-05-08 12:07 | 51.66713 | 6.40393 | 27605 ft | 459 kts | 133° |
| 2026-05-08 12:07 | 51.64589 | 6.44250 | 27901 ft | 461 kts | 133° |
| 2026-05-08 12:07 | 51.62454 | 6.48118 | 28189 ft | 463 kts | 133° |
| 2026-05-08 12:08 | 51.60310 | 6.51995 | 28486 ft | 465 kts | 133° |
| 2026-05-08 12:08 | 51.58152 | 6.55895 | 28770 ft | 467 kts | 133° |
| 2026-05-08 12:08 | 51.55989 | 6.59800 | 29047 ft | 469 kts | 133° |
| 2026-05-08 12:08 | 51.53820 | 6.63709 | 29384 ft | 469 kts | 133° |
| 2026-05-08 12:09 | 51.51653 | 6.67609 | 29778 ft | 467 kts | 133° |
| 2026-05-08 12:09 | 51.49496 | 6.71488 | 30168 ft | 465 kts | 133° |
| 2026-05-08 12:09 | 51.47343 | 6.75354 | 30518 ft | 464 kts | 133° |
| 2026-05-08 12:09 | 51.45188 | 6.79216 | 30841 ft | 465 kts | 133° |
| 2026-05-08 12:10 | 51.43033 | 6.83075 | 31197 ft | 464 kts | 133° |
| 2026-05-08 12:10 | 51.40883 | 6.86923 | 31555 ft | 463 kts | 132° |
| 2026-05-08 12:10 | 51.38890 | 6.90969 | 31879 ft | 463 kts | 127° |
| 2026-05-08 12:10 | 51.37057 | 6.95211 | 32170 ft | 464 kts | 125° |
| 2026-05-08 12:11 | 51.35293 | 6.99450 | 32460 ft | 463 kts | 124° |
| 2026-05-08 12:11 | 51.33518 | 7.03741 | 32743 ft | 463 kts | 124° |
| 2026-05-08 12:11 | 51.31729 | 7.08030 | 33022 ft | 463 kts | 125° |
| 2026-05-08 12:11 | 51.29932 | 7.12290 | 33328 ft | 462 kts | 125° |
| 2026-05-08 12:12 | 51.28128 | 7.16528 | 33658 ft | 460 kts | 126° |
| 2026-05-08 12:12 | 51.26323 | 7.20734 | 33973 ft | 459 kts | 126° |
| 2026-05-08 12:12 | 51.24513 | 7.24934 | 34231 ft | 459 kts | 126° |
| 2026-05-08 12:12 | 51.22700 | 7.29129 | 34438 ft | 460 kts | 126° |
| 2026-05-08 12:13 | 51.20883 | 7.33326 | 34667 ft | 461 kts | 126° |
| 2026-05-08 12:13 | 51.19064 | 7.37525 | 34920 ft | 460 kts | 126° |
| 2026-05-08 12:13 | 51.17241 | 7.41725 | 35162 ft | 460 kts | 126° |
| 2026-05-08 12:13 | 51.15420 | 7.45918 | 35371 ft | 461 kts | 126° |
| 2026-05-08 12:14 | 51.13592 | 7.50119 | 35571 ft | 462 kts | 126° |
| 2026-05-08 12:14 | 51.11763 | 7.54318 | 35793 ft | 462 kts | 126° |
| 2026-05-08 12:14 | 51.09931 | 7.58517 | 36000 ft | 462 kts | 126° |
| 2026-05-08 12:14 | 51.08099 | 7.62707 | 36202 ft | 462 kts | 126° |
| 2026-05-08 12:15 | 51.06259 | 7.66907 | 36378 ft | 463 kts | 126° |
| 2026-05-08 12:15 | 51.04418 | 7.71103 | 36538 ft | 464 kts | 126° |
| 2026-05-08 12:15 | 51.02573 | 7.75303 | 36798 ft | 462 kts | 126° |
| 2026-05-08 12:15 | 51.00744 | 7.79463 | 37130 ft | 458 kts | 126° |
| 2026-05-08 12:16 | 50.97075 | 7.87786 | 37117 ft | 460 kts | 126° |
| 2026-05-08 12:16 | 50.93403 | 7.96046 | 37108 ft | 455 kts | 128° |
| 2026-05-08 12:17 | 50.91336 | 7.99806 | 37108 ft | 451 kts | 139° |
| 2026-05-08 12:17 | 50.88972 | 8.03054 | 37119 ft | 449 kts | 141° |
| 2026-05-08 12:17 | 50.84166 | 8.09358 | 37109 ft | 448 kts | 142° |
| 2026-05-08 12:18 | 50.79384 | 8.15666 | 37099 ft | 448 kts | 141° |
| 2026-05-08 12:18 | 50.74616 | 8.22014 | 37106 ft | 448 kts | 141° |
| 2026-05-08 12:19 | 50.69848 | 8.28373 | 37108 ft | 449 kts | 141° |
| 2026-05-08 12:19 | 50.65066 | 8.34739 | 37110 ft | 451 kts | 141° |
| 2026-05-08 12:20 | 50.60253 | 8.41124 | 37102 ft | 453 kts | 141° |
| 2026-05-08 12:20 | 50.55422 | 8.47515 | 37110 ft | 454 kts | 141° |
| 2026-05-08 12:21 | 50.50572 | 8.53912 | 37109 ft | 456 kts | 141° |
| 2026-05-08 12:21 | 50.45708 | 8.60312 | 37114 ft | 457 kts | 141° |
| 2026-05-08 12:22 | 50.40982 | 8.66981 | 37113 ft | 458 kts | 137° |
| 2026-05-08 12:22 | 50.36447 | 8.73896 | 37114 ft | 458 kts | 137° |
| 2026-05-08 12:23 | 50.31889 | 8.80853 | 37106 ft | 457 kts | 137° |
| 2026-05-08 12:23 | 50.27312 | 8.87755 | 37107 ft | 456 kts | 137° |
| 2026-05-08 12:24 | 50.22735 | 8.94598 | 37116 ft | 455 kts | 137° |
| 2026-05-08 12:24 | 50.18161 | 9.01415 | 37115 ft | 454 kts | 137° |
| 2026-05-08 12:25 | 50.13587 | 9.08215 | 37110 ft | 454 kts | 138° |
| 2026-05-08 12:25 | 50.09017 | 9.14989 | 37117 ft | 453 kts | 138° |
| 2026-05-08 12:26 | 50.04448 | 9.21744 | 37107 ft | 453 kts | 138° |
| 2026-05-08 12:26 | 49.99878 | 9.28480 | 37109 ft | 453 kts | 138° |
| 2026-05-08 12:27 | 49.95302 | 9.35208 | 37110 ft | 453 kts | 138° |
| 2026-05-08 12:27 | 49.90720 | 9.41927 | 37109 ft | 453 kts | 138° |
| 2026-05-08 12:28 | 49.86135 | 9.48631 | 37108 ft | 453 kts | 138° |
| 2026-05-08 12:28 | 49.81541 | 9.55333 | 37119 ft | 454 kts | 138° |
| 2026-05-08 12:29 | 49.76971 | 9.61978 | 37126 ft | 454 kts | 138° |
| 2026-05-08 12:29 | 49.72336 | 9.68701 | 37118 ft | 454 kts | 138° |
| 2026-05-08 12:30 | 49.67753 | 9.75331 | 37119 ft | 455 kts | 138° |
| 2026-05-08 12:30 | 49.63102 | 9.82041 | 37126 ft | 455 kts | 138° |
| 2026-05-08 12:31 | 49.58508 | 9.88650 | 37122 ft | 455 kts | 139° |
| 2026-05-08 12:31 | 49.53871 | 9.95301 | 37109 ft | 456 kts | 139° |
| 2026-05-08 12:32 | 49.49233 | 10.01939 | 37104 ft | 456 kts | 139° |
| 2026-05-08 12:32 | 49.44577 | 10.08581 | 37096 ft | 456 kts | 139° |
| 2026-05-08 12:33 | 49.39926 | 10.15200 | 37113 ft | 456 kts | 139° |
| 2026-05-08 12:33 | 49.35276 | 10.21800 | 37112 ft | 455 kts | 139° |
| 2026-05-08 12:34 | 49.30623 | 10.28387 | 37112 ft | 455 kts | 139° |
| 2026-05-08 12:34 | 49.25974 | 10.34955 | 37107 ft | 454 kts | 139° |
| 2026-05-08 12:35 | 49.21024 | 10.40873 | 37118 ft | 450 kts | 151° |
| 2026-05-08 12:35 | 49.15618 | 10.45708 | 37124 ft | 450 kts | 152° |
| 2026-05-08 12:36 | 49.10207 | 10.50527 | 37120 ft | 450 kts | 152° |
| 2026-05-08 12:36 | 49.04849 | 10.55365 | 37122 ft | 451 kts | 151° |
| 2026-05-08 12:37 | 48.99459 | 10.60252 | 37118 ft | 451 kts | 151° |
| 2026-05-08 12:37 | 48.94065 | 10.65129 | 37122 ft | 451 kts | 151° |
| 2026-05-08 12:38 | 48.88667 | 10.69999 | 37113 ft | 451 kts | 151° |
| 2026-05-08 12:38 | 48.83260 | 10.74864 | 37107 ft | 452 kts | 150° |
| 2026-05-08 12:39 | 48.78434 | 10.80992 | 37109 ft | 456 kts | 134° |
| 2026-05-08 12:39 | 48.74223 | 10.88180 | 37110 ft | 456 kts | 133° |
| 2026-05-08 12:40 | 48.70018 | 10.95362 | 37099 ft | 456 kts | 134° |
| 2026-05-08 12:40 | 48.65778 | 11.02496 | 37084 ft | 456 kts | 134° |
| 2026-05-08 12:41 | 48.61516 | 11.09604 | 37082 ft | 456 kts | 134° |
| 2026-05-08 12:41 | 48.57247 | 11.16695 | 37083 ft | 456 kts | 134° |
| 2026-05-08 12:42 | 48.52974 | 11.23781 | 37082 ft | 456 kts | 134° |
| 2026-05-08 12:42 | 48.48691 | 11.30863 | 37083 ft | 457 kts | 135° |
| 2026-05-08 12:43 | 48.44405 | 11.37933 | 37078 ft | 457 kts | 135° |
| 2026-05-08 12:43 | 48.40118 | 11.44988 | 37070 ft | 457 kts | 135° |
| 2026-05-08 12:44 | 48.35825 | 11.52034 | 37074 ft | 456 kts | 135° |
| 2026-05-08 12:44 | 48.31537 | 11.59053 | 37074 ft | 456 kts | 135° |
| 2026-05-08 12:45 | 48.27970 | 11.64877 | 37074 ft | 455 kts | 135° |
| 2026-05-08 12:45 | 48.23560 | 11.71662 | 37070 ft | 453 kts | 140° |
| 2026-05-08 12:46 | 48.18130 | 11.78999 | 37074 ft | 452 kts | 141° |
| 2026-05-08 12:46 | 48.14210 | 11.84254 | 37075 ft | 452 kts | 141° |
| 2026-05-08 12:47 | 48.09551 | 11.90566 | 37074 ft | 452 kts | 140° |
| 2026-05-08 12:47 | 48.04905 | 11.96895 | 37076 ft | 452 kts | 140° |
| 2026-05-08 12:48 | 48.00257 | 12.03230 | 37077 ft | 452 kts | 140° |
| 2026-05-08 12:48 | 47.95604 | 12.09548 | 37074 ft | 453 kts | 140° |
| 2026-05-08 12:49 | 47.90941 | 12.15862 | 37074 ft | 453 kts | 141° |
| 2026-05-08 12:49 | 47.86299 | 12.22131 | 37064 ft | 453 kts | 141° |
| 2026-05-08 12:50 | 47.81624 | 12.28430 | 37065 ft | 453 kts | 141° |
| 2026-05-08 12:50 | 47.76943 | 12.34720 | 37077 ft | 453 kts | 141° |
| 2026-05-08 12:51 | 47.69923 | 12.44123 | 37071 ft | 453 kts | 141° |
| 2026-05-08 12:52 | 47.65237 | 12.50384 | 37075 ft | 453 kts | 141° |
| 2026-05-08 12:52 | 47.60292 | 12.56064 | 37077 ft | 448 kts | 153° |
| 2026-05-08 12:52 | 47.57581 | 12.58338 | 37072 ft | 448 kts | 154° |
| 2026-05-08 12:53 | 47.52129 | 12.62790 | 37078 ft | 448 kts | 154° |
| 2026-05-08 12:53 | 47.46685 | 12.67269 | 37082 ft | 448 kts | 153° |
| 2026-05-08 12:54 | 47.41256 | 12.71784 | 37085 ft | 448 kts | 153° |
| 2026-05-08 12:54 | 47.35832 | 12.76305 | 37091 ft | 447 kts | 153° |
| 2026-05-08 12:55 | 47.30410 | 12.80819 | 37084 ft | 447 kts | 153° |
| 2026-05-08 12:55 | 47.24986 | 12.85320 | 37079 ft | 447 kts | 153° |
| 2026-05-08 12:56 | 47.19561 | 12.89809 | 37081 ft | 447 kts | 153° |
| 2026-05-08 12:56 | 47.14140 | 12.94284 | 37072 ft | 446 kts | 153° |
| 2026-05-08 12:57 | 47.08730 | 12.98742 | 37070 ft | 445 kts | 153° |
| 2026-05-08 12:57 | 47.03328 | 13.03184 | 37068 ft | 445 kts | 153° |
| 2026-05-08 12:58 | 46.97930 | 13.07613 | 37083 ft | 445 kts | 153° |
| 2026-05-08 12:58 | 46.92514 | 13.12040 | 37078 ft | 446 kts | 154° |
| 2026-05-08 12:59 | 46.87091 | 13.16466 | 37080 ft | 446 kts | 154° |
| 2026-05-08 12:59 | 46.81671 | 13.20879 | 37069 ft | 446 kts | 153° |
| 2026-05-08 13:00 | 46.76260 | 13.25276 | 37063 ft | 445 kts | 154° |
| 2026-05-08 13:00 | 46.70852 | 13.29659 | 37068 ft | 445 kts | 154° |
| 2026-05-08 13:01 | 46.65466 | 13.34014 | 37070 ft | 445 kts | 154° |
| 2026-05-08 13:01 | 46.62740 | 13.36213 | 36670 ft | 451 kts | 154° |
| 2026-05-08 13:01 | 46.59998 | 13.38424 | 36147 ft | 449 kts | 154° |
| 2026-05-08 13:02 | 46.57267 | 13.40625 | 35501 ft | 449 kts | 154° |
| 2026-05-08 13:02 | 46.54531 | 13.42827 | 34846 ft | 450 kts | 154° |
| 2026-05-08 13:02 | 46.51784 | 13.45035 | 34159 ft | 451 kts | 154° |
| 2026-05-08 13:02 | 46.49039 | 13.47239 | 33469 ft | 452 kts | 154° |
| 2026-05-08 13:03 | 46.46282 | 13.49450 | 32716 ft | 453 kts | 154° |
| 2026-05-08 13:03 | 46.43529 | 13.51654 | 32003 ft | 453 kts | 154° |
| 2026-05-08 13:03 | 46.40746 | 13.53821 | 31233 ft | 453 kts | 156° |
| 2026-05-08 13:03 | 46.37902 | 13.55772 | 30536 ft | 452 kts | 158° |
| 2026-05-08 13:04 | 46.35029 | 13.57633 | 29789 ft | 452 kts | 159° |
| 2026-05-08 13:04 | 46.32168 | 13.59447 | 29239 ft | 446 kts | 159° |
| 2026-05-08 13:04 | 46.29333 | 13.61244 | 28667 ft | 442 kts | 159° |
| 2026-05-08 13:04 | 46.26534 | 13.63027 | 28098 ft | 439 kts | 158° |
| 2026-05-08 13:05 | 46.23753 | 13.64811 | 27522 ft | 435 kts | 158° |
| 2026-05-08 13:05 | 46.20992 | 13.66589 | 26948 ft | 432 kts | 158° |
| 2026-05-08 13:05 | 46.18264 | 13.68350 | 26374 ft | 428 kts | 158° |
| 2026-05-08 13:05 | 46.15555 | 13.70091 | 25824 ft | 424 kts | 158° |
| 2026-05-08 13:06 | 46.12870 | 13.71825 | 25271 ft | 421 kts | 157° |
| 2026-05-08 13:06 | 46.10210 | 13.73547 | 24722 ft | 418 kts | 157° |
| 2026-05-08 13:06 | 46.07563 | 13.75253 | 24170 ft | 415 kts | 157° |
| 2026-05-08 13:06 | 46.04933 | 13.76945 | 23618 ft | 413 kts | 157° |
| 2026-05-08 13:07 | 46.02320 | 13.78624 | 23065 ft | 410 kts | 157° |
| 2026-05-08 13:07 | 45.99724 | 13.80290 | 22516 ft | 407 kts | 157° |
| 2026-05-08 13:07 | 45.97144 | 13.81945 | 21975 ft | 404 kts | 157° |
| 2026-05-08 13:07 | 45.94583 | 13.83586 | 21446 ft | 401 kts | 157° |
| 2026-05-08 13:08 | 45.92046 | 13.85211 | 20916 ft | 398 kts | 157° |
| 2026-05-08 13:08 | 45.89525 | 13.86823 | 20378 ft | 395 kts | 157° |
| 2026-05-08 13:08 | 45.87019 | 13.88423 | 19841 ft | 393 kts | 157° |
| 2026-05-08 13:08 | 45.84568 | 13.89987 | 19315 ft | 389 kts | 157° |
| 2026-05-08 13:09 | 45.82105 | 13.91556 | 18804 ft | 386 kts | 157° |
| 2026-05-08 13:09 | 45.79625 | 13.93134 | 18265 ft | 383 kts | 157° |
| 2026-05-08 13:09 | 45.77196 | 13.94681 | 17751 ft | 380 kts | 157° |
| 2026-05-08 13:09 | 45.74818 | 13.96192 | 17235 ft | 378 kts | 157° |
| 2026-05-08 13:10 | 45.72424 | 13.97713 | 16733 ft | 375 kts | 157° |
| 2026-05-08 13:10 | 45.70042 | 13.99225 | 16210 ft | 372 kts | 157° |
| 2026-05-08 13:10 | 45.67683 | 14.00721 | 15706 ft | 370 kts | 157° |
| 2026-05-08 13:10 | 45.65342 | 14.02203 | 15202 ft | 367 kts | 156° |
| 2026-05-08 13:11 | 45.63017 | 14.03676 | 14707 ft | 364 kts | 156° |
| 2026-05-08 13:11 | 45.60710 | 14.05133 | 14205 ft | 361 kts | 156° |
| 2026-05-08 13:11 | 45.58419 | 14.06580 | 13700 ft | 359 kts | 156° |
| 2026-05-08 13:11 | 45.56138 | 14.08020 | 13224 ft | 357 kts | 156° |
| 2026-05-08 13:12 | 45.53876 | 14.09448 | 12725 ft | 354 kts | 156° |
| 2026-05-08 13:12 | 45.51634 | 14.10861 | 12228 ft | 352 kts | 156° |
| 2026-05-08 13:12 | 45.49402 | 14.12266 | 11712 ft | 350 kts | 156° |
| 2026-05-08 13:12 | 45.47151 | 14.13559 | 11212 ft | 348 kts | 163° |
| 2026-05-08 13:13 | 45.44814 | 14.14326 | 10906 ft | 341 kts | 169° |
| 2026-05-08 13:13 | 45.42517 | 14.14960 | 10702 ft | 331 kts | 169° |
| 2026-05-08 13:13 | 45.40292 | 14.15568 | 10518 ft | 321 kts | 169° |
| 2026-05-08 13:13 | 45.38130 | 14.16164 | 10363 ft | 311 kts | 169° |
| 2026-05-08 13:14 | 45.36041 | 14.16747 | 10233 ft | 301 kts | 169° |
| 2026-05-08 13:14 | 45.34022 | 14.17316 | 10099 ft | 292 kts | 169° |
| 2026-05-08 13:14 | 45.32060 | 14.17874 | 9950 ft | 285 kts | 168° |
| 2026-05-08 13:14 | 45.30121 | 14.18427 | 9656 ft | 284 kts | 168° |
| 2026-05-08 13:15 | 45.28196 | 14.18975 | 9387 ft | 281 kts | 168° |
| 2026-05-08 13:15 | 45.26282 | 14.19521 | 9095 ft | 279 kts | 168° |
| 2026-05-08 13:15 | 45.24384 | 14.20063 | 8809 ft | 278 kts | 168° |
| 2026-05-08 13:15 | 45.22496 | 14.20602 | 8521 ft | 276 kts | 168° |
| 2026-05-08 13:16 | 45.20620 | 14.21136 | 8243 ft | 274 kts | 168° |
| 2026-05-08 13:16 | 45.18751 | 14.21671 | 7964 ft | 273 kts | 168° |
| 2026-05-08 13:16 | 45.16892 | 14.22201 | 7660 ft | 272 kts | 168° |
| 2026-05-08 13:16 | 45.15039 | 14.22729 | 7380 ft | 271 kts | 168° |
| 2026-05-08 13:17 | 45.13192 | 14.23256 | 7100 ft | 270 kts | 168° |
| 2026-05-08 13:17 | 45.11359 | 14.23777 | 6818 ft | 268 kts | 168° |
| 2026-05-08 13:17 | 45.09537 | 14.24296 | 6524 ft | 266 kts | 168° |
| 2026-05-08 13:17 | 45.07726 | 14.24811 | 6247 ft | 265 kts | 168° |
| 2026-05-08 13:18 | 45.05949 | 14.25315 | 5975 ft | 263 kts | 168° |
| 2026-05-08 13:18 | 45.04161 | 14.25822 | 5689 ft | 262 kts | 168° |
| 2026-05-08 13:18 | 45.02383 | 14.26326 | 5403 ft | 261 kts | 168° |
| 2026-05-08 13:18 | 45.00595 | 14.26674 | 5134 ft | 259 kts | 177° |
| 2026-05-08 13:19 | 44.98823 | 14.26715 | 5029 ft | 250 kts | 179° |
| 2026-05-08 13:19 | 44.97082 | 14.26739 | 4895 ft | 243 kts | 179° |
| 2026-05-08 13:19 | 44.95441 | 14.26780 | 4787 ft | 236 kts | 178° |
| 2026-05-08 13:19 | 44.93828 | 14.26831 | 4679 ft | 228 kts | 178° |
| 2026-05-08 13:20 | 44.92268 | 14.26856 | 4586 ft | 220 kts | 185° |
| 2026-05-08 13:20 | 44.90890 | 14.26034 | 4385 ft | 219 kts | 226° |
| 2026-05-08 13:20 | 44.90233 | 14.24125 | 4204 ft | 223 kts | 262° |
| 2026-05-08 13:20 | 44.90086 | 14.21928 | 3977 ft | 226 kts | 265° |
| 2026-05-08 13:21 | 44.89986 | 14.19710 | 3729 ft | 227 kts | 267° |
| 2026-05-08 13:21 | 44.89926 | 14.17501 | 3505 ft | 223 kts | 268° |
| 2026-05-08 13:21 | 44.89876 | 14.15346 | 3248 ft | 217 kts | 268° |
| 2026-05-08 13:21 | 44.89829 | 14.13282 | 3102 ft | 207 kts | 268° |
| 2026-05-08 13:22 | 44.89781 | 14.11263 | 2828 ft | 205 kts | 268° |
| 2026-05-08 13:22 | 44.89735 | 14.09273 | 2554 ft | 201 kts | 268° |
| 2026-05-08 13:22 | 44.89689 | 14.07345 | 2273 ft | 192 kts | 268° |
| 2026-05-08 13:22 | 44.89649 | 14.05522 | 2012 ft | 181 kts | 268° |
| 2026-05-08 13:23 | 44.89610 | 14.03823 | 1767 ft | 166 kts | 268° |
| 2026-05-08 13:23 | 44.89573 | 14.02263 | 1510 ft | 154 kts | 267° |
| 2026-05-08 13:23 | 44.89524 | 14.00750 | 1275 ft | 154 kts | 267° |
| 2026-05-08 13:23 | 44.89489 | 13.99254 | 1078 ft | 151 kts | 268° |
| 2026-05-08 13:24 | 44.89466 | 13.97779 | 873 ft | 151 kts | 269° |
| 2026-05-08 13:24 | 44.89439 | 13.96310 | 665 ft | 150 kts | 268° |
| 2026-05-08 13:24 | 44.89407 | 13.94837 | 418 ft | 151 kts | 268° |
| 2026-05-08 13:24 | 44.89379 | 13.93352 | 227 ft | 147 kts | 268° |
| 2026-05-08 13:25 | 44.89352 | 13.92091 | 221 ft | 107 kts | 268° |
| 2026-05-08 13:25 | 44.89335 | 13.91261 | 223 ft | 63 kts | 268° |
| 2026-05-08 13:25 | 44.89324 | 13.90781 | 222 ft | 42 kts | 268° |
| 2026-05-08 13:25 | 44.89317 | 13.90453 | 223 ft | 19 kts | 268° |
| 2026-05-08 13:26 | 44.89396 | 13.90399 | 224 ft | 18 kts | 43° |
| 2026-05-08 13:26 | 44.89482 | 13.90534 | 218 ft | 19 kts | 47° |
| 2026-05-08 13:26 | 44.89542 | 13.90687 | 218 ft | 18 kts | 87° |
| 2026-05-08 13:26 | 44.89545 | 13.90862 | 224 ft | 18 kts | 86° |
| 2026-05-08 13:27 | 44.89550 | 13.91031 | 215 ft | 17 kts | 88° |
| 2026-05-08 13:27 | 44.89553 | 13.91193 | 215 ft | 16 kts | 88° |
| 2026-05-08 13:27 | 44.89556 | 13.91350 | 221 ft | 16 kts | 88° |
| 2026-05-08 13:27 | 44.89560 | 13.91508 | 219 ft | 16 kts | 88° |
| 2026-05-08 13:28 | 44.89564 | 13.91677 | 225 ft | 19 kts | 88° |
| 2026-05-08 13:28 | 44.89567 | 13.91876 | 225 ft | 20 kts | 89° |
| 2026-05-08 13:28 | 44.89610 | 13.92031 | 225 ft | 14 kts | 45° |
| 2026-05-08 13:28 | 44.89631 | 13.92159 | 225 ft | 13 kts | 89° |
| 2026-05-08 13:29 | 44.89665 | 13.92227 | 225 ft | 5 kts | 44° |
| 2026-05-08 13:29 | 44.89674 | 13.92242 | 225 ft | 0 kts | 46° |